sensor_id;sensor_type;location;lat;lon;timestamp;P1;durP1;ratioP1;P2;durP2;ratioP2
23800;SDS011;12081;48.614;10.226;2023-05-10T00:00:00;6.07;;;5.50;;
23800;SDS011;12081;48.614;10.226;2023-05-10T00:02:44;6.13;;;5.63;;
23800;SDS011;12081;48.614;10.226;2023-05-10T00:05:28;5.90;;;5.40;;
23800;SDS011;12081;48.614;10.226;2023-05-10T00:08:13;5.87;;;5.33;;
23800;SDS011;12081;48.614;10.226;2023-05-10T00:10:57;6.03;;;5.53;;
23800;SDS011;12081;48.614;10.226;2023-05-10T00:13:42;6.30;;;5.70;;
23800;SDS011;12081;48.614;10.226;2023-05-10T00:16:26;5.80;;;5.30;;
23800;SDS011;12081;48.614;10.226;2023-05-10T00:19:10;6.10;;;5.50;;
23800;SDS011;12081;48.614;10.226;2023-05-10T00:21:54;5.43;;;4.93;;
23800;SDS011;12081;48.614;10.226;2023-05-10T00:24:40;4.83;;;4.43;;
23800;SDS011;12081;48.614;10.226;2023-05-10T00:27:24;5.27;;;4.87;;
23800;SDS011;12081;48.614;10.226;2023-05-10T00:30:08;5.57;;;5.07;;
23800;SDS011;12081;48.614;10.226;2023-05-10T00:32:52;5.87;;;5.37;;
23800;SDS011;12081;48.614;10.226;2023-05-10T00:35:36;5.93;;;5.43;;
23800;SDS011;12081;48.614;10.226;2023-05-10T00:38:21;6.87;;;5.67;;
23800;SDS011;12081;48.614;10.226;2023-05-10T00:41:05;6.20;;;5.70;;
23800;SDS011;12081;48.614;10.226;2023-05-10T00:43:49;7.30;;;6.70;;
23800;SDS011;12081;48.614;10.226;2023-05-10T00:46:33;7.07;;;6.13;;
23800;SDS011;12081;48.614;10.226;2023-05-10T00:49:18;6.93;;;6.23;;
23800;SDS011;12081;48.614;10.226;2023-05-10T00:52:03;5.77;;;5.27;;
23800;SDS011;12081;48.614;10.226;2023-05-10T00:54:47;6.13;;;5.57;;
23800;SDS011;12081;48.614;10.226;2023-05-10T00:57:32;5.67;;;4.87;;
23800;SDS011;12081;48.614;10.226;2023-05-10T01:00:16;5.93;;;4.70;;
23800;SDS011;12081;48.614;10.226;2023-05-10T01:03:01;5.40;;;4.90;;
23800;SDS011;12081;48.614;10.226;2023-05-10T01:05:46;5.60;;;4.73;;
23800;SDS011;12081;48.614;10.226;2023-05-10T01:08:30;5.10;;;4.60;;
23800;SDS011;12081;48.614;10.226;2023-05-10T01:11:15;4.67;;;4.13;;
23800;SDS011;12081;48.614;10.226;2023-05-10T01:13:58;4.07;;;3.67;;
23800;SDS011;12081;48.614;10.226;2023-05-10T01:16:43;4.83;;;3.83;;
23800;SDS011;12081;48.614;10.226;2023-05-10T01:19:29;3.83;;;3.50;;
23800;SDS011;12081;48.614;10.226;2023-05-10T01:34:02;3.93;;;3.27;;
23800;SDS011;12081;48.614;10.226;2023-05-10T01:36:58;3.73;;;2.30;;
23800;SDS011;12081;48.614;10.226;2023-05-10T01:43:04;2.60;;;2.20;;
23800;SDS011;12081;48.614;10.226;2023-05-10T01:48:48;2.43;;;2.20;;
23800;SDS011;12081;48.614;10.226;2023-05-10T01:51:39;2.77;;;1.90;;
23800;SDS011;12081;48.614;10.226;2023-05-10T01:54:30;3.73;;;2.00;;
23800;SDS011;12081;48.614;10.226;2023-05-10T01:57:17;2.93;;;1.60;;
23800;SDS011;12081;48.614;10.226;2023-05-10T02:00:03;2.60;;;1.70;;
23800;SDS011;12081;48.614;10.226;2023-05-10T02:02:51;2.20;;;1.70;;
23800;SDS011;12081;48.614;10.226;2023-05-10T02:05:37;2.80;;;1.53;;
23800;SDS011;12081;48.614;10.226;2023-05-10T02:08:23;1.53;;;0.90;;
23800;SDS011;12081;48.614;10.226;2023-05-10T02:11:08;1.10;;;1.00;;
23800;SDS011;12081;48.614;10.226;2023-05-10T02:13:55;1.57;;;0.80;;
23800;SDS011;12081;48.614;10.226;2023-05-10T02:16:41;0.50;;;0.37;;
23800;SDS011;12081;48.614;10.226;2023-05-10T02:19:26;0.30;;;0.20;;
23800;SDS011;12081;48.614;10.226;2023-05-10T02:22:12;4.13;;;0.30;;
23800;SDS011;12081;48.614;10.226;2023-05-10T02:24:59;3.30;;;0.20;;
23800;SDS011;12081;48.614;10.226;2023-05-10T02:27:45;0.40;;;0.20;;
23800;SDS011;12081;48.614;10.226;2023-05-10T02:30:31;0.83;;;0.20;;
23800;SDS011;12081;48.614;10.226;2023-05-10T02:33:16;0.20;;;0.10;;
23800;SDS011;12081;48.614;10.226;2023-05-10T02:36:03;1.43;;;0.10;;
23800;SDS011;12081;48.614;10.226;2023-05-10T02:38:48;0.40;;;0.20;;
23800;SDS011;12081;48.614;10.226;2023-05-10T02:41:34;1.03;;;0.10;;
23800;SDS011;12081;48.614;10.226;2023-05-10T02:49:30;1.43;;;0.13;;
23800;SDS011;12081;48.614;10.226;2023-05-10T03:03:07;1.63;;;0.13;;
23800;SDS011;12081;48.614;10.226;2023-05-10T03:06:01;0.37;;;0.20;;
23800;SDS011;12081;48.614;10.226;2023-05-10T04:59:09;0.80;;;0.60;;
23800;SDS011;12081;48.614;10.226;2023-05-10T05:01:54;0.77;;;0.77;;
23800;SDS011;12081;48.614;10.226;2023-05-10T05:04:38;0.97;;;0.87;;
23800;SDS011;12081;48.614;10.226;2023-05-10T05:07:22;1.00;;;0.80;;
23800;SDS011;12081;48.614;10.226;2023-05-10T05:10:07;0.87;;;0.87;;
23800;SDS011;12081;48.614;10.226;2023-05-10T05:12:52;2.97;;;1.10;;
23800;SDS011;12081;48.614;10.226;2023-05-10T05:15:36;2.00;;;0.80;;
23800;SDS011;12081;48.614;10.226;2023-05-10T05:18:20;0.90;;;0.70;;
23800;SDS011;12081;48.614;10.226;2023-05-10T05:21:17;1.20;;;0.70;;
23800;SDS011;12081;48.614;10.226;2023-05-10T05:24:02;1.47;;;0.60;;
23800;SDS011;12081;48.614;10.226;2023-05-10T05:26:47;3.53;;;1.20;;
23800;SDS011;12081;48.614;10.226;2023-05-10T05:29:31;2.10;;;0.87;;
23800;SDS011;12081;48.614;10.226;2023-05-10T05:32:17;0.80;;;0.77;;
23800;SDS011;12081;48.614;10.226;2023-05-10T05:35:01;0.97;;;0.70;;
23800;SDS011;12081;48.614;10.226;2023-05-10T05:37:45;2.00;;;0.90;;
23800;SDS011;12081;48.614;10.226;2023-05-10T05:40:29;1.63;;;0.90;;
23800;SDS011;12081;48.614;10.226;2023-05-10T05:43:13;5.53;;;1.10;;
23800;SDS011;12081;48.614;10.226;2023-05-10T05:45:57;0.80;;;0.70;;
23800;SDS011;12081;48.614;10.226;2023-05-10T05:48:41;2.07;;;0.77;;
23800;SDS011;12081;48.614;10.226;2023-05-10T05:51:26;1.33;;;0.80;;
23800;SDS011;12081;48.614;10.226;2023-05-10T05:54:11;0.70;;;0.70;;
23800;SDS011;12081;48.614;10.226;2023-05-10T05:56:59;2.53;;;0.93;;
23800;SDS011;12081;48.614;10.226;2023-05-10T05:59:44;1.13;;;0.60;;
23800;SDS011;12081;48.614;10.226;2023-05-10T06:02:31;2.10;;;0.60;;
23800;SDS011;12081;48.614;10.226;2023-05-10T06:05:16;1.33;;;0.70;;
23800;SDS011;12081;48.614;10.226;2023-05-10T06:08:00;1.60;;;0.80;;
23800;SDS011;12081;48.614;10.226;2023-05-10T06:10:44;2.50;;;0.90;;
23800;SDS011;12081;48.614;10.226;2023-05-10T06:13:29;0.70;;;0.60;;
23800;SDS011;12081;48.614;10.226;2023-05-10T06:16:16;1.00;;;0.50;;
23800;SDS011;12081;48.614;10.226;2023-05-10T06:19:01;0.70;;;0.70;;
23800;SDS011;12081;48.614;10.226;2023-05-10T06:21:46;2.53;;;0.77;;
23800;SDS011;12081;48.614;10.226;2023-05-10T06:24:30;0.70;;;0.60;;
23800;SDS011;12081;48.614;10.226;2023-05-10T06:27:14;1.30;;;0.60;;
23800;SDS011;12081;48.614;10.226;2023-05-10T06:29:58;0.50;;;0.50;;
23800;SDS011;12081;48.614;10.226;2023-05-10T06:32:43;0.90;;;0.53;;
23800;SDS011;12081;48.614;10.226;2023-05-10T06:35:28;1.77;;;0.63;;
23800;SDS011;12081;48.614;10.226;2023-05-10T06:38:12;1.00;;;0.70;;
23800;SDS011;12081;48.614;10.226;2023-05-10T06:40:57;1.00;;;0.60;;
23800;SDS011;12081;48.614;10.226;2023-05-10T06:43:41;1.20;;;0.70;;
23800;SDS011;12081;48.614;10.226;2023-05-10T06:46:27;1.37;;;0.60;;
23800;SDS011;12081;48.614;10.226;2023-05-10T06:49:11;0.90;;;0.50;;
23800;SDS011;12081;48.614;10.226;2023-05-10T06:51:55;2.23;;;0.70;;
23800;SDS011;12081;48.614;10.226;2023-05-10T06:54:39;0.90;;;0.43;;
23800;SDS011;12081;48.614;10.226;2023-05-10T06:57:24;1.67;;;0.43;;
23800;SDS011;12081;48.614;10.226;2023-05-10T07:00:09;0.60;;;0.50;;
23800;SDS011;12081;48.614;10.226;2023-05-10T07:02:53;1.00;;;0.57;;
23800;SDS011;12081;48.614;10.226;2023-05-10T07:05:38;1.60;;;0.60;;
23800;SDS011;12081;48.614;10.226;2023-05-10T07:08:22;2.27;;;0.60;;
23800;SDS011;12081;48.614;10.226;2023-05-10T07:11:07;1.20;;;0.60;;
23800;SDS011;12081;48.614;10.226;2023-05-10T07:13:51;0.80;;;0.50;;
23800;SDS011;12081;48.614;10.226;2023-05-10T07:16:35;1.47;;;0.50;;
23800;SDS011;12081;48.614;10.226;2023-05-10T07:19:19;1.17;;;0.70;;
23800;SDS011;12081;48.614;10.226;2023-05-10T07:22:04;0.60;;;0.50;;
23800;SDS011;12081;48.614;10.226;2023-05-10T07:24:48;2.17;;;0.80;;
23800;SDS011;12081;48.614;10.226;2023-05-10T07:27:33;0.60;;;0.53;;
23800;SDS011;12081;48.614;10.226;2023-05-10T07:30:17;0.60;;;0.50;;
23800;SDS011;12081;48.614;10.226;2023-05-10T07:33:02;4.27;;;0.83;;
23800;SDS011;12081;48.614;10.226;2023-05-10T07:35:46;2.50;;;0.80;;
23800;SDS011;12081;48.614;10.226;2023-05-10T07:38:31;1.20;;;0.50;;
23800;SDS011;12081;48.614;10.226;2023-05-10T07:41:15;1.20;;;0.70;;
23800;SDS011;12081;48.614;10.226;2023-05-10T07:43:59;1.47;;;0.77;;
23800;SDS011;12081;48.614;10.226;2023-05-10T07:46:43;1.23;;;0.83;;
23800;SDS011;12081;48.614;10.226;2023-05-10T07:49:28;2.43;;;0.70;;
23800;SDS011;12081;48.614;10.226;2023-05-10T07:52:12;0.80;;;0.60;;
23800;SDS011;12081;48.614;10.226;2023-05-10T07:54:57;1.63;;;0.80;;
23800;SDS011;12081;48.614;10.226;2023-05-10T07:57:41;1.07;;;0.60;;
23800;SDS011;12081;48.614;10.226;2023-05-10T08:00:25;0.90;;;0.60;;
23800;SDS011;12081;48.614;10.226;2023-05-10T08:03:10;2.20;;;0.70;;
23800;SDS011;12081;48.614;10.226;2023-05-10T08:05:55;3.10;;;0.73;;
23800;SDS011;12081;48.614;10.226;2023-05-10T08:08:39;1.00;;;0.70;;
23800;SDS011;12081;48.614;10.226;2023-05-10T08:11:24;0.93;;;0.70;;
23800;SDS011;12081;48.614;10.226;2023-05-10T08:14:08;4.03;;;0.90;;
23800;SDS011;12081;48.614;10.226;2023-05-10T08:16:53;1.47;;;0.70;;
23800;SDS011;12081;48.614;10.226;2023-05-10T08:19:37;0.90;;;0.70;;
23800;SDS011;12081;48.614;10.226;2023-05-10T08:22:22;0.87;;;0.70;;
23800;SDS011;12081;48.614;10.226;2023-05-10T08:25:06;1.13;;;0.50;;
23800;SDS011;12081;48.614;10.226;2023-05-10T08:27:51;0.70;;;0.60;;
23800;SDS011;12081;48.614;10.226;2023-05-10T08:30:36;1.57;;;0.70;;
23800;SDS011;12081;48.614;10.226;2023-05-10T08:33:20;2.10;;;0.67;;
23800;SDS011;12081;48.614;10.226;2023-05-10T08:36:05;1.50;;;0.70;;
23800;SDS011;12081;48.614;10.226;2023-05-10T08:38:50;1.10;;;0.70;;
23800;SDS011;12081;48.614;10.226;2023-05-10T08:41:37;0.60;;;0.60;;
23800;SDS011;12081;48.614;10.226;2023-05-10T08:44:23;1.37;;;0.70;;
23800;SDS011;12081;48.614;10.226;2023-05-10T08:47:08;1.63;;;0.70;;
23800;SDS011;12081;48.614;10.226;2023-05-10T08:49:53;0.73;;;0.50;;
23800;SDS011;12081;48.614;10.226;2023-05-10T08:52:38;0.80;;;0.50;;
23800;SDS011;12081;48.614;10.226;2023-05-10T08:55:23;2.23;;;0.70;;
23800;SDS011;12081;48.614;10.226;2023-05-10T08:58:08;1.13;;;0.70;;
23800;SDS011;12081;48.614;10.226;2023-05-10T09:00:53;8.00;;;0.83;;
23800;SDS011;12081;48.614;10.226;2023-05-10T09:03:41;0.90;;;0.70;;
23800;SDS011;12081;48.614;10.226;2023-05-10T09:06:25;2.50;;;0.80;;
23800;SDS011;12081;48.614;10.226;2023-05-10T09:09:09;1.03;;;0.60;;
23800;SDS011;12081;48.614;10.226;2023-05-10T09:11:54;2.27;;;1.40;;
23800;SDS011;12081;48.614;10.226;2023-05-10T09:14:38;1.90;;;0.80;;
23800;SDS011;12081;48.614;10.226;2023-05-10T09:17:23;1.83;;;0.80;;
23800;SDS011;12081;48.614;10.226;2023-05-10T09:20:08;3.23;;;0.70;;
23800;SDS011;12081;48.614;10.226;2023-05-10T09:22:52;0.70;;;0.50;;
23800;SDS011;12081;48.614;10.226;2023-05-10T09:25:36;2.20;;;0.63;;
23800;SDS011;12081;48.614;10.226;2023-05-10T09:28:22;2.50;;;0.40;;
23800;SDS011;12081;48.614;10.226;2023-05-10T09:31:06;1.37;;;0.60;;
23800;SDS011;12081;48.614;10.226;2023-05-10T09:33:51;1.57;;;0.50;;
23800;SDS011;12081;48.614;10.226;2023-05-10T09:36:36;1.43;;;0.50;;
23800;SDS011;12081;48.614;10.226;2023-05-10T09:39:20;1.13;;;0.40;;
23800;SDS011;12081;48.614;10.226;2023-05-10T09:42:05;1.63;;;0.50;;
23800;SDS011;12081;48.614;10.226;2023-05-10T09:44:51;1.67;;;0.40;;
23800;SDS011;12081;48.614;10.226;2023-05-10T09:47:35;3.83;;;0.60;;
23800;SDS011;12081;48.614;10.226;2023-05-10T09:50:20;2.97;;;0.50;;
23800;SDS011;12081;48.614;10.226;2023-05-10T09:53:04;0.47;;;0.30;;
23800;SDS011;12081;48.614;10.226;2023-05-10T09:55:50;0.37;;;0.30;;
23800;SDS011;12081;48.614;10.226;2023-05-10T09:58:36;1.17;;;0.30;;
23800;SDS011;12081;48.614;10.226;2023-05-10T10:01:21;0.53;;;0.27;;
23800;SDS011;12081;48.614;10.226;2023-05-10T10:04:09;2.73;;;0.30;;
23800;SDS011;12081;48.614;10.226;2023-05-10T10:07:04;0.97;;;0.30;;
23800;SDS011;12081;48.614;10.226;2023-05-10T10:09:48;0.60;;;0.30;;
23800;SDS011;12081;48.614;10.226;2023-05-10T10:12:32;0.27;;;0.20;;
23800;SDS011;12081;48.614;10.226;2023-05-10T10:15:16;0.83;;;0.40;;
23800;SDS011;12081;48.614;10.226;2023-05-10T10:18:01;1.77;;;0.40;;
23800;SDS011;12081;48.614;10.226;2023-05-10T10:20:47;2.43;;;0.40;;
23800;SDS011;12081;48.614;10.226;2023-05-10T10:23:31;1.13;;;0.50;;
23800;SDS011;12081;48.614;10.226;2023-05-10T10:26:15;4.07;;;0.30;;
23800;SDS011;12081;48.614;10.226;2023-05-10T10:29:10;0.70;;;0.30;;
23800;SDS011;12081;48.614;10.226;2023-05-10T10:39:05;1.83;;;0.33;;
23800;SDS011;12081;48.614;10.226;2023-05-10T10:41:53;2.87;;;0.50;;
23800;SDS011;12081;48.614;10.226;2023-05-10T10:44:41;0.30;;;0.20;;
23800;SDS011;12081;48.614;10.226;2023-05-10T10:47:28;1.10;;;0.47;;
23800;SDS011;12081;48.614;10.226;2023-05-10T10:50:16;0.60;;;0.40;;
23800;SDS011;12081;48.614;10.226;2023-05-10T10:53:09;1.70;;;0.60;;
23800;SDS011;12081;48.614;10.226;2023-05-10T10:56:05;1.10;;;0.80;;
23800;SDS011;12081;48.614;10.226;2023-05-10T10:58:56;0.67;;;0.30;;
23800;SDS011;12081;48.614;10.226;2023-05-10T11:01:43;0.50;;;0.30;;
23800;SDS011;12081;48.614;10.226;2023-05-10T11:04:27;0.80;;;0.40;;
23800;SDS011;12081;48.614;10.226;2023-05-10T11:07:18;1.00;;;0.40;;
23800;SDS011;12081;48.614;10.226;2023-05-10T11:10:04;1.43;;;0.50;;
23800;SDS011;12081;48.614;10.226;2023-05-10T11:13:05;3.47;;;0.43;;
23800;SDS011;12081;48.614;10.226;2023-05-10T11:15:50;1.20;;;0.30;;
23800;SDS011;12081;48.614;10.226;2023-05-10T11:18:36;0.43;;;0.23;;
23800;SDS011;12081;48.614;10.226;2023-05-10T11:21:21;0.90;;;0.30;;
23800;SDS011;12081;48.614;10.226;2023-05-10T11:24:12;1.57;;;0.73;;
23800;SDS011;12081;48.614;10.226;2023-05-10T11:26:58;1.03;;;0.40;;
23800;SDS011;12081;48.614;10.226;2023-05-10T11:29:44;2.90;;;0.50;;
23800;SDS011;12081;48.614;10.226;2023-05-10T11:32:29;0.83;;;0.40;;
23800;SDS011;12081;48.614;10.226;2023-05-10T11:35:14;1.03;;;0.50;;
23800;SDS011;12081;48.614;10.226;2023-05-10T11:37:58;0.90;;;0.60;;
23800;SDS011;12081;48.614;10.226;2023-05-10T11:40:43;1.30;;;0.80;;
23800;SDS011;12081;48.614;10.226;2023-05-10T11:43:27;1.17;;;0.50;;
23800;SDS011;12081;48.614;10.226;2023-05-10T11:46:14;4.87;;;0.80;;
23800;SDS011;12081;48.614;10.226;2023-05-10T11:48:59;1.57;;;0.50;;
23800;SDS011;12081;48.614;10.226;2023-05-10T11:51:45;2.70;;;0.40;;
23800;SDS011;12081;48.614;10.226;2023-05-10T11:54:29;2.10;;;0.57;;
23800;SDS011;12081;48.614;10.226;2023-05-10T11:57:14;0.73;;;0.50;;
23800;SDS011;12081;48.614;10.226;2023-05-10T11:59:59;2.93;;;0.63;;
23800;SDS011;12081;48.614;10.226;2023-05-10T12:02:44;1.10;;;0.60;;
23800;SDS011;12081;48.614;10.226;2023-05-10T12:05:31;1.27;;;0.30;;
23800;SDS011;12081;48.614;10.226;2023-05-10T12:08:19;2.40;;;0.90;;
23800;SDS011;12081;48.614;10.226;2023-05-10T12:11:07;1.63;;;0.70;;
23800;SDS011;12081;48.614;10.226;2023-05-10T12:13:54;2.33;;;0.60;;
23800;SDS011;12081;48.614;10.226;2023-05-10T12:16:40;1.10;;;0.70;;
23800;SDS011;12081;48.614;10.226;2023-05-10T12:19:25;1.77;;;0.50;;
23800;SDS011;12081;48.614;10.226;2023-05-10T12:22:10;1.50;;;0.57;;
23800;SDS011;12081;48.614;10.226;2023-05-10T12:24:54;0.70;;;0.50;;
23800;SDS011;12081;48.614;10.226;2023-05-10T12:27:39;1.50;;;0.50;;
23800;SDS011;12081;48.614;10.226;2023-05-10T12:30:24;0.80;;;0.50;;
23800;SDS011;12081;48.614;10.226;2023-05-10T12:33:10;0.77;;;0.47;;
23800;SDS011;12081;48.614;10.226;2023-05-10T12:35:59;1.77;;;0.60;;
23800;SDS011;12081;48.614;10.226;2023-05-10T12:38:44;1.83;;;0.40;;
23800;SDS011;12081;48.614;10.226;2023-05-10T12:41:32;0.80;;;0.30;;
23800;SDS011;12081;48.614;10.226;2023-05-10T12:44:17;0.83;;;0.30;;
23800;SDS011;12081;48.614;10.226;2023-05-10T12:47:01;1.73;;;0.63;;
23800;SDS011;12081;48.614;10.226;2023-05-10T12:49:46;1.57;;;0.30;;
23800;SDS011;12081;48.614;10.226;2023-05-10T12:52:31;4.20;;;0.70;;
23800;SDS011;12081;48.614;10.226;2023-05-10T12:55:16;1.50;;;0.60;;
23800;SDS011;12081;48.614;10.226;2023-05-10T12:58:01;0.60;;;0.40;;
23800;SDS011;12081;48.614;10.226;2023-05-10T13:00:45;0.60;;;0.43;;
23800;SDS011;12081;48.614;10.226;2023-05-10T13:03:30;0.90;;;0.40;;
23800;SDS011;12081;48.614;10.226;2023-05-10T13:06:14;0.60;;;0.40;;
23800;SDS011;12081;48.614;10.226;2023-05-10T13:08:59;1.40;;;0.60;;
23800;SDS011;12081;48.614;10.226;2023-05-10T13:11:44;0.70;;;0.40;;
23800;SDS011;12081;48.614;10.226;2023-05-10T13:14:29;3.63;;;0.50;;
23800;SDS011;12081;48.614;10.226;2023-05-10T13:17:13;2.57;;;0.60;;
23800;SDS011;12081;48.614;10.226;2023-05-10T13:19:58;2.93;;;0.60;;
23800;SDS011;12081;48.614;10.226;2023-05-10T13:22:43;1.47;;;0.40;;
23800;SDS011;12081;48.614;10.226;2023-05-10T13:25:29;3.60;;;0.47;;
23800;SDS011;12081;48.614;10.226;2023-05-10T13:28:13;3.43;;;0.40;;
23800;SDS011;12081;48.614;10.226;2023-05-10T13:30:58;2.93;;;0.60;;
23800;SDS011;12081;48.614;10.226;2023-05-10T13:33:43;4.27;;;0.87;;
23800;SDS011;12081;48.614;10.226;2023-05-10T13:36:28;0.87;;;0.40;;
23800;SDS011;12081;48.614;10.226;2023-05-10T13:39:12;0.53;;;0.33;;
23800;SDS011;12081;48.614;10.226;2023-05-10T13:41:57;0.60;;;0.30;;
23800;SDS011;12081;48.614;10.226;2023-05-10T13:44:42;1.00;;;0.50;;
23800;SDS011;12081;48.614;10.226;2023-05-10T13:47:26;0.63;;;0.47;;
23800;SDS011;12081;48.614;10.226;2023-05-10T13:50:11;2.60;;;0.67;;
23800;SDS011;12081;48.614;10.226;2023-05-10T13:52:55;0.77;;;0.50;;
23800;SDS011;12081;48.614;10.226;2023-05-10T13:55:41;2.70;;;0.70;;
23800;SDS011;12081;48.614;10.226;2023-05-10T13:58:25;2.50;;;0.60;;
23800;SDS011;12081;48.614;10.226;2023-05-10T14:01:10;0.87;;;0.60;;
23800;SDS011;12081;48.614;10.226;2023-05-10T14:03:56;0.47;;;0.30;;
23800;SDS011;12081;48.614;10.226;2023-05-10T14:06:40;0.87;;;0.40;;
23800;SDS011;12081;48.614;10.226;2023-05-10T14:09:24;2.23;;;0.80;;
23800;SDS011;12081;48.614;10.226;2023-05-10T14:12:09;1.20;;;0.60;;
23800;SDS011;12081;48.614;10.226;2023-05-10T14:14:53;1.87;;;0.80;;
23800;SDS011;12081;48.614;10.226;2023-05-10T14:17:38;0.67;;;0.50;;
23800;SDS011;12081;48.614;10.226;2023-05-10T14:20:23;2.53;;;0.63;;
23800;SDS011;12081;48.614;10.226;2023-05-10T14:23:07;0.80;;;0.50;;
23800;SDS011;12081;48.614;10.226;2023-05-10T14:29:33;1.00;;;0.63;;
23800;SDS011;12081;48.614;10.226;2023-05-10T14:32:17;1.97;;;0.47;;
23800;SDS011;12081;48.614;10.226;2023-05-10T14:35:02;0.87;;;0.40;;
23800;SDS011;12081;48.614;10.226;2023-05-10T14:37:47;0.40;;;0.30;;
23800;SDS011;12081;48.614;10.226;2023-05-10T14:40:31;1.57;;;0.57;;
23800;SDS011;12081;48.614;10.226;2023-05-10T14:43:16;0.80;;;0.47;;
23800;SDS011;12081;48.614;10.226;2023-05-10T14:46:01;1.97;;;0.70;;
23800;SDS011;12081;48.614;10.226;2023-05-10T14:48:45;0.70;;;0.40;;
23800;SDS011;12081;48.614;10.226;2023-05-10T14:51:30;3.90;;;0.77;;
23800;SDS011;12081;48.614;10.226;2023-05-10T14:54:15;1.53;;;0.60;;
23800;SDS011;12081;48.614;10.226;2023-05-10T14:56:59;1.83;;;0.60;;
23800;SDS011;12081;48.614;10.226;2023-05-10T14:59:44;4.43;;;0.60;;
23800;SDS011;12081;48.614;10.226;2023-05-10T15:02:30;1.93;;;0.60;;
23800;SDS011;12081;48.614;10.226;2023-05-10T15:05:15;1.50;;;0.57;;
23800;SDS011;12081;48.614;10.226;2023-05-10T15:11:41;2.77;;;0.70;;
23800;SDS011;12081;48.614;10.226;2023-05-10T15:14:26;1.23;;;0.60;;
23800;SDS011;12081;48.614;10.226;2023-05-10T15:17:11;3.03;;;0.70;;
23800;SDS011;12081;48.614;10.226;2023-05-10T15:19:56;1.57;;;0.60;;
23800;SDS011;12081;48.614;10.226;2023-05-10T15:22:40;3.07;;;0.97;;
23800;SDS011;12081;48.614;10.226;2023-05-10T15:25:24;3.67;;;0.80;;
23800;SDS011;12081;48.614;10.226;2023-05-10T15:28:09;1.47;;;0.60;;
23800;SDS011;12081;48.614;10.226;2023-05-10T15:30:54;3.10;;;0.70;;
23800;SDS011;12081;48.614;10.226;2023-05-10T15:33:39;1.93;;;0.70;;
23800;SDS011;12081;48.614;10.226;2023-05-10T15:36:24;1.87;;;0.70;;
23800;SDS011;12081;48.614;10.226;2023-05-10T15:39:09;2.07;;;0.70;;
23800;SDS011;12081;48.614;10.226;2023-05-10T15:41:54;3.30;;;0.83;;
23800;SDS011;12081;48.614;10.226;2023-05-10T15:44:39;2.77;;;1.00;;
23800;SDS011;12081;48.614;10.226;2023-05-10T15:47:23;2.07;;;1.23;;
23800;SDS011;12081;48.614;10.226;2023-05-10T15:50:09;6.53;;;4.40;;
23800;SDS011;12081;48.614;10.226;2023-05-10T15:52:53;2.03;;;1.40;;
23800;SDS011;12081;48.614;10.226;2023-05-10T15:55:38;1.70;;;1.10;;
23800;SDS011;12081;48.614;10.226;2023-05-10T15:58:23;1.47;;;1.17;;
23800;SDS011;12081;48.614;10.226;2023-05-10T16:01:07;3.77;;;1.10;;
23800;SDS011;12081;48.614;10.226;2023-05-10T16:03:54;2.47;;;1.03;;
23800;SDS011;12081;48.614;10.226;2023-05-10T16:06:39;1.63;;;1.10;;
23800;SDS011;12081;48.614;10.226;2023-05-10T16:09:24;6.13;;;1.20;;
23800;SDS011;12081;48.614;10.226;2023-05-10T16:12:08;2.20;;;1.07;;
23800;SDS011;12081;48.614;10.226;2023-05-10T16:18:34;2.13;;;1.00;;
23800;SDS011;12081;48.614;10.226;2023-05-10T16:21:18;2.87;;;1.30;;
23800;SDS011;12081;48.614;10.226;2023-05-10T16:24:04;1.10;;;0.90;;
23800;SDS011;12081;48.614;10.226;2023-05-10T16:26:48;7.03;;;5.17;;
23800;SDS011;12081;48.614;10.226;2023-05-10T16:29:33;5.50;;;2.93;;
23800;SDS011;12081;48.614;10.226;2023-05-10T16:32:17;5.73;;;1.70;;
23800;SDS011;12081;48.614;10.226;2023-05-10T16:35:02;1.67;;;1.07;;
23800;SDS011;12081;48.614;10.226;2023-05-10T16:37:47;2.07;;;1.30;;
23800;SDS011;12081;48.614;10.226;2023-05-10T16:40:31;1.57;;;1.00;;
23800;SDS011;12081;48.614;10.226;2023-05-10T16:43:16;4.37;;;1.40;;
23800;SDS011;12081;48.614;10.226;2023-05-10T16:46:01;3.37;;;1.13;;
23800;SDS011;12081;48.614;10.226;2023-05-10T16:48:46;4.40;;;1.00;;
23800;SDS011;12081;48.614;10.226;2023-05-10T16:51:31;1.60;;;1.30;;
23800;SDS011;12081;48.614;10.226;2023-05-10T16:54:15;2.23;;;1.50;;
23800;SDS011;12081;48.614;10.226;2023-05-10T16:57:01;6.03;;;1.70;;
23800;SDS011;12081;48.614;10.226;2023-05-10T16:59:45;4.90;;;1.27;;
23800;SDS011;12081;48.614;10.226;2023-05-10T17:02:30;2.40;;;1.63;;
23800;SDS011;12081;48.614;10.226;2023-05-10T17:05:14;2.23;;;1.60;;
23800;SDS011;12081;48.614;10.226;2023-05-10T17:07:59;2.07;;;1.63;;
23800;SDS011;12081;48.614;10.226;2023-05-10T17:10:43;3.20;;;1.50;;
23800;SDS011;12081;48.614;10.226;2023-05-10T17:13:28;7.83;;;2.00;;
23800;SDS011;12081;48.614;10.226;2023-05-10T17:16:13;3.73;;;1.50;;
23800;SDS011;12081;48.614;10.226;2023-05-10T17:18:58;5.43;;;1.73;;
23800;SDS011;12081;48.614;10.226;2023-05-10T17:21:42;2.70;;;1.50;;
23800;SDS011;12081;48.614;10.226;2023-05-10T17:24:27;2.53;;;1.57;;
23800;SDS011;12081;48.614;10.226;2023-05-10T17:27:12;3.97;;;1.50;;
23800;SDS011;12081;48.614;10.226;2023-05-10T17:29:56;3.37;;;1.63;;
23800;SDS011;12081;48.614;10.226;2023-05-10T17:32:41;2.63;;;1.50;;
23800;SDS011;12081;48.614;10.226;2023-05-10T17:35:26;4.00;;;1.50;;
23800;SDS011;12081;48.614;10.226;2023-05-10T17:38:10;2.03;;;1.30;;
23800;SDS011;12081;48.614;10.226;2023-05-10T17:40:55;2.23;;;1.70;;
23800;SDS011;12081;48.614;10.226;2023-05-10T17:43:39;3.07;;;1.60;;
23800;SDS011;12081;48.614;10.226;2023-05-10T17:46:24;4.17;;;1.93;;
23800;SDS011;12081;48.614;10.226;2023-05-10T17:49:08;3.60;;;1.90;;
23800;SDS011;12081;48.614;10.226;2023-05-10T17:51:53;2.80;;;2.20;;
23800;SDS011;12081;48.614;10.226;2023-05-10T17:54:38;4.80;;;2.10;;
23800;SDS011;12081;48.614;10.226;2023-05-10T17:57:22;4.33;;;2.80;;
23800;SDS011;12081;48.614;10.226;2023-05-10T18:00:07;4.53;;;2.50;;
23800;SDS011;12081;48.614;10.226;2023-05-10T18:02:53;3.47;;;2.10;;
23800;SDS011;12081;48.614;10.226;2023-05-10T18:05:37;4.37;;;2.07;;
23800;SDS011;12081;48.614;10.226;2023-05-10T18:08:23;3.83;;;3.20;;
23800;SDS011;12081;48.614;10.226;2023-05-10T18:11:09;5.57;;;3.30;;
23800;SDS011;12081;48.614;10.226;2023-05-10T18:13:54;5.30;;;2.93;;
23800;SDS011;12081;48.614;10.226;2023-05-10T18:16:38;5.33;;;2.53;;
23800;SDS011;12081;48.614;10.226;2023-05-10T18:19:25;3.27;;;2.60;;
23800;SDS011;12081;48.614;10.226;2023-05-10T18:22:10;2.53;;;2.20;;
23800;SDS011;12081;48.614;10.226;2023-05-10T18:24:55;5.80;;;3.20;;
23800;SDS011;12081;48.614;10.226;2023-05-10T18:27:39;5.83;;;2.80;;
23800;SDS011;12081;48.614;10.226;2023-05-10T18:30:24;4.77;;;2.63;;
23800;SDS011;12081;48.614;10.226;2023-05-10T18:33:08;4.33;;;2.87;;
23800;SDS011;12081;48.614;10.226;2023-05-10T18:35:54;3.70;;;2.93;;
23800;SDS011;12081;48.614;10.226;2023-05-10T18:38:38;4.83;;;2.37;;
23800;SDS011;12081;48.614;10.226;2023-05-10T18:41:23;4.27;;;3.20;;
23800;SDS011;12081;48.614;10.226;2023-05-10T18:44:11;3.53;;;2.73;;
23800;SDS011;12081;48.614;10.226;2023-05-10T18:46:56;3.67;;;2.70;;
23800;SDS011;12081;48.614;10.226;2023-05-10T18:49:42;3.53;;;2.40;;
23800;SDS011;12081;48.614;10.226;2023-05-10T18:52:28;4.13;;;2.87;;
23800;SDS011;12081;48.614;10.226;2023-05-10T18:55:13;4.20;;;2.93;;
23800;SDS011;12081;48.614;10.226;2023-05-10T18:57:57;5.80;;;3.30;;
23800;SDS011;12081;48.614;10.226;2023-05-10T19:00:42;5.07;;;3.20;;